createdAt,value
2023-01-11T00:01:20.187Z,10.20
2023-01-11T00:03:47.361Z,10.30
2023-01-11T00:06:18.834Z,10.30
2023-01-11T00:08:48.893Z,10.30
2023-01-11T00:11:16.786Z,10.30
2023-01-11T00:13:47.734Z,10.30
2023-01-11T00:16:15.235Z,10.20
2023-01-11T00:18:44.528Z,10.20
2023-01-11T00:21:11.416Z,10.30
2023-01-11T00:23:40.692Z,10.30
2023-01-11T00:26:12.015Z,10.30
2023-01-11T00:28:39.063Z,10.20
2023-01-11T00:31:09.075Z,10.30
2023-01-11T00:33:36.072Z,10.30
2023-01-11T00:36:05.408Z,10.30
2023-01-11T00:38:44.063Z,10.30
2023-01-11T00:41:32.180Z,10.30
2023-01-11T00:44:17.768Z,10.30
2023-01-11T00:47:03.533Z,10.20
2023-01-11T00:49:33.405Z,10.20
2023-01-11T00:52:00.651Z,10.20
2023-01-11T00:54:27.846Z,10.30
2023-01-11T00:56:54.701Z,10.30
2023-01-11T00:59:23.817Z,10.20
2023-01-11T01:01:50.702Z,10.20
2023-01-11T01:04:20.049Z,10.30
2023-01-11T01:06:49.425Z,10.30
2023-01-11T01:09:16.280Z,10.20
2023-01-11T01:11:43.190Z,10.20
2023-01-11T01:14:33.723Z,10.20
2023-01-11T01:17:07.804Z,10.20
2023-01-11T01:19:38.223Z,10.20
2023-01-11T01:22:05.313Z,10.20
2023-01-11T01:24:33.192Z,10.30
2023-01-11T01:27:00.375Z,10.30
2023-01-11T01:29:27.295Z,10.30
2023-01-11T01:31:54.309Z,10.30
2023-01-11T01:34:21.185Z,10.30
2023-01-11T01:36:50.359Z,10.30
2023-01-11T01:39:19.575Z,10.30
2023-01-11T01:41:46.941Z,10.30
2023-01-11T01:44:56.946Z,10.30
2023-01-11T01:47:39.270Z,10.40
2023-01-11T01:50:24.476Z,10.40
2023-01-11T01:53:03.549Z,10.40
2023-01-11T01:55:40.033Z,10.40
2023-01-11T01:58:13.631Z,10.40
2023-01-11T02:00:43.567Z,10.40
2023-01-11T02:03:21.099Z,10.50
2023-01-11T02:05:50.398Z,10.40
2023-01-11T02:08:33.121Z,10.40
2023-01-11T02:11:04.099Z,10.40
2023-01-11T02:13:45.968Z,10.40
2023-01-11T02:16:13.157Z,10.30
2023-01-11T02:18:40.166Z,10.30
2023-01-11T02:21:26.210Z,10.30
2023-01-11T02:24:18.861Z,10.30
2023-01-11T02:27:24.981Z,10.20
2023-01-11T02:30:13.700Z,10.20
2023-01-11T02:33:15.417Z,10.20
2023-01-11T02:36:35.751Z,10.20
2023-01-11T02:39:40.855Z,10.20
2023-01-11T02:42:57.798Z,10.20
2023-01-11T02:45:44.356Z,10.20
2023-01-11T02:48:34.357Z,10.20
2023-01-11T02:51:32.661Z,10.20
2023-01-11T02:54:06.413Z,10.20
2023-01-11T02:56:40.697Z,10.20
2023-01-11T02:59:15.276Z,10.20
2023-01-11T03:01:55.607Z,10.30
2023-01-11T03:04:40.700Z,10.30
2023-01-11T03:07:28.692Z,10.30
2023-01-11T03:10:36.979Z,10.30
2023-01-11T03:13:24.824Z,10.30
2023-01-11T03:16:03.839Z,10.30
2023-01-11T03:18:50.764Z,10.40
2023-01-11T03:21:23.405Z,10.40
2023-01-11T03:24:13.340Z,10.40
2023-01-11T03:26:49.948Z,10.40
2023-01-11T03:29:58.377Z,10.50
2023-01-11T03:32:46.937Z,10.50
2023-01-11T03:35:19.718Z,10.50
2023-01-11T03:38:03.667Z,10.50
2023-01-11T03:40:41.352Z,10.50
2023-01-11T03:43:11.608Z,10.50
2023-01-11T03:45:57.576Z,10.50
2023-01-11T03:48:46.231Z,10.50
2023-01-11T03:51:19.418Z,10.50
2023-01-11T03:53:52.323Z,10.50
2023-01-11T03:56:28.116Z,10.50
2023-01-11T03:58:54.997Z,10.50
2023-01-11T04:01:22.198Z,10.50
2023-01-11T04:03:49.083Z,10.50
2023-01-11T04:06:17.254Z,10.50
2023-01-11T04:08:46.527Z,10.50
2023-01-11T04:11:18.524Z,10.40
2023-01-11T04:13:45.396Z,10.50
2023-01-11T04:16:14.789Z,10.50
2023-01-11T04:18:43.969Z,10.40
2023-01-11T04:21:10.816Z,10.40
2023-01-11T04:23:37.722Z,10.40
2023-01-11T04:26:04.947Z,10.40
2023-01-11T04:28:34.857Z,10.40
2023-01-11T04:31:01.885Z,10.40
2023-01-11T04:33:33.380Z,10.40
2023-01-11T04:36:08.638Z,10.40
2023-01-11T04:38:38.390Z,10.40
2023-01-11T04:41:24.044Z,10.40
2023-01-11T04:43:56.437Z,10.40
2023-01-11T04:46:29.055Z,10.40
2023-01-11T04:48:58.048Z,10.40
2023-01-11T04:51:27.993Z,10.40
2023-01-11T04:53:55.116Z,10.40
2023-01-11T04:56:22.037Z,10.40
2023-01-11T04:58:48.941Z,10.40
2023-01-11T05:01:19.799Z,10.40
2023-01-11T05:03:49.452Z,10.50
2023-01-11T05:06:16.427Z,10.50
2023-01-11T05:08:47.557Z,10.50
2023-01-11T05:11:18.073Z,10.50
2023-01-11T05:13:45.334Z,10.40
2023-01-11T05:16:18.982Z,10.40
2023-01-11T05:19:05.097Z,10.30
2023-01-11T05:21:36.304Z,10.30
2023-01-11T05:24:06.230Z,10.30
2023-01-11T05:26:39.331Z,10.30
2023-01-11T05:29:16.111Z,10.30
2023-01-11T05:31:43.410Z,10.30
2023-01-11T05:34:14.792Z,10.20
2023-01-11T05:36:44.898Z,10.20
2023-01-11T05:39:13.534Z,10.30
2023-01-11T05:41:43.347Z,10.30
2023-01-11T05:44:31.344Z,10.30
2023-01-11T05:46:58.659Z,10.40
2023-01-11T05:49:25.868Z,10.40
2023-01-11T05:51:55.079Z,10.40
2023-01-11T05:54:22.062Z,10.50
2023-01-11T05:56:49.023Z,10.50
2023-01-11T05:59:15.992Z,10.50
2023-01-11T06:01:43.446Z,10.50
2023-01-11T06:04:10.392Z,10.60
2023-01-11T06:06:37.333Z,10.60
2023-01-11T06:09:04.325Z,10.60
2023-01-11T06:11:31.565Z,10.60
2023-01-11T06:14:01.013Z,10.60
2023-01-11T06:16:27.953Z,10.70
2023-01-11T06:19:00.720Z,10.70
2023-01-11T06:21:27.701Z,10.70
2023-01-11T06:23:55.366Z,10.70
2023-01-11T06:26:24.216Z,10.70
2023-01-11T06:28:51.931Z,10.70
2023-01-11T06:31:19.484Z,10.70
2023-01-11T06:33:47.460Z,10.70
2023-01-11T06:36:15.908Z,10.70
2023-01-11T06:38:45.600Z,10.70
2023-01-11T06:41:13.573Z,10.70
2023-01-11T06:43:41.892Z,10.70
2023-01-11T06:46:15.131Z,10.80
2023-01-11T06:48:43.086Z,10.70
2023-01-11T06:51:13.470Z,10.70
2023-01-11T06:53:42.712Z,10.70
2023-01-11T06:56:15.572Z,10.70
2023-01-11T06:58:42.957Z,10.70
2023-01-11T07:01:10.758Z,10.70
2023-01-11T07:03:41.547Z,10.70
2023-01-11T07:06:08.543Z,10.60
2023-01-11T07:08:35.410Z,10.70
2023-01-11T07:11:02.401Z,10.60
2023-01-11T07:13:29.371Z,10.60
2023-01-11T07:16:00.021Z,10.60
2023-01-11T07:18:26.930Z,10.60
2023-01-11T07:20:53.928Z,10.60
2023-01-11T07:23:20.864Z,10.60
2023-01-11T07:25:53.344Z,10.50
2023-01-11T07:28:22.634Z,10.50
2023-01-11T07:30:59.412Z,10.50
2023-01-11T07:33:29.123Z,10.50
2023-01-11T07:35:56.287Z,10.50
2023-01-11T07:38:25.770Z,10.60
2023-01-11T07:40:52.682Z,10.60
2023-01-11T07:43:23.034Z,10.70
2023-01-11T07:45:52.893Z,10.70
2023-01-11T07:48:26.380Z,10.70
2023-01-11T07:50:54.268Z,10.70
2023-01-11T07:53:22.344Z,10.80
2023-01-11T07:55:49.209Z,10.80
2023-01-11T07:58:18.761Z,10.80
2023-01-11T08:00:46.312Z,10.80
2023-01-11T08:03:16.009Z,10.80
2023-01-11T08:05:45.083Z,10.80
2023-01-11T08:08:14.215Z,10.90
2023-01-11T08:10:43.165Z,10.90
2023-01-11T08:13:32.407Z,10.90
2023-01-11T08:16:02.324Z,11.00
2023-01-11T08:18:29.255Z,11.00
2023-01-11T08:20:58.596Z,11.00
2023-01-11T08:23:27.184Z,11.10
2023-01-11T08:25:57.732Z,11.10
2023-01-11T08:28:24.566Z,11.10
2023-01-11T08:30:51.538Z,11.10
2023-01-11T08:33:21.309Z,11.20
2023-01-11T08:35:50.457Z,11.20
2023-01-11T08:38:17.321Z,11.30
2023-01-11T08:40:44.184Z,11.30
2023-01-11T08:43:11.143Z,11.30
2023-01-11T08:45:38.287Z,11.40
2023-01-11T08:48:07.408Z,11.40
2023-01-11T08:50:34.379Z,11.40
2023-01-11T08:53:01.241Z,11.40
2023-01-11T08:55:28.189Z,11.50
2023-01-11T08:57:59.808Z,11.50
2023-01-11T09:00:26.619Z,11.60
2023-01-11T09:05:45.215Z,11.60
2023-01-11T09:08:12.155Z,11.60
2023-01-11T09:10:39.000Z,11.60
2023-01-11T09:13:05.983Z,11.60
2023-01-11T09:15:32.841Z,11.70
2023-01-11T09:17:59.865Z,11.70
2023-01-11T09:20:26.847Z,11.70
2023-01-11T09:22:53.849Z,11.70
2023-01-11T09:25:21.414Z,11.70
2023-01-11T09:27:54.887Z,11.70
2023-01-11T09:30:23.562Z,11.70
2023-01-11T09:32:52.175Z,11.80
2023-01-11T09:35:19.662Z,11.80
2023-01-11T09:37:55.632Z,11.80
2023-01-11T09:40:42.072Z,11.90
2023-01-11T09:43:14.951Z,11.90
2023-01-11T09:45:46.738Z,11.90
2023-01-11T09:48:28.927Z,11.90
2023-01-11T09:50:56.564Z,11.90
2023-01-11T09:53:38.531Z,12.00
2023-01-11T09:56:16.904Z,12.00
2023-01-11T09:59:09.838Z,12.10
2023-01-11T10:02:05.486Z,12.10
2023-01-11T10:05:23.550Z,12.20
2023-01-11T10:18:25.788Z,12.30
2023-01-11T10:18:31.450Z,12.30
2023-01-11T10:21:07.299Z,12.30
2023-01-11T10:23:54.225Z,12.30
2023-01-11T10:26:39.636Z,12.30
2023-01-11T10:29:20.401Z,12.40
2023-01-11T10:32:19.994Z,12.40
2023-01-11T10:34:58.832Z,12.40
2023-01-11T10:37:50.674Z,12.50
2023-01-11T10:40:40.570Z,12.40
2023-01-11T10:43:22.435Z,12.40
2023-01-11T10:45:58.507Z,12.50
2023-01-11T10:48:38.358Z,12.50
2023-01-11T10:51:40.886Z,12.60
2023-01-11T10:54:27.307Z,12.60
2023-01-11T10:57:23.345Z,12.60
2023-01-11T11:00:36.551Z,12.70
2023-01-11T11:03:21.425Z,12.70
2023-01-11T11:06:06.605Z,12.70
2023-01-11T11:08:42.071Z,12.70
2023-01-11T11:11:22.713Z,12.80
2023-01-11T11:14:37.191Z,12.80
2023-01-11T11:17:25.003Z,12.80
2023-01-11T11:19:53.579Z,12.80
2023-01-11T11:22:21.007Z,12.90
2023-01-11T11:25:06.975Z,12.90
2023-01-11T11:28:05.986Z,12.90
2023-01-11T11:30:39.156Z,12.90
2023-01-11T11:33:23.343Z,12.90
2023-01-11T11:36:06.698Z,12.90
2023-01-11T11:38:40.448Z,12.90
2023-01-11T11:41:25.984Z,12.90
2023-01-11T11:44:17.329Z,12.90
2023-01-11T11:47:15.508Z,12.90
2023-01-11T11:49:44.921Z,12.90
2023-01-11T11:52:15.402Z,12.90
2023-01-11T11:55:00.721Z,12.90
2023-01-11T11:57:33.157Z,12.90
2023-01-11T12:00:26.084Z,12.90
2023-01-11T12:03:30.269Z,12.80
2023-01-11T12:06:07.496Z,12.80
2023-01-11T12:08:35.526Z,12.80
2023-01-11T12:11:06.799Z,12.80
2023-01-11T12:13:39.830Z,12.80
2023-01-11T12:16:20.980Z,12.80
2023-01-11T12:18:50.216Z,12.80
2023-01-11T12:21:22.911Z,12.80
2023-01-11T12:24:19.184Z,12.80
2023-01-11T12:26:57.150Z,12.90
2023-01-11T12:29:54.230Z,12.90
2023-01-11T12:33:06.097Z,12.80
2023-01-11T12:35:54.005Z,12.80
2023-01-11T12:38:37.869Z,12.80
2023-01-11T12:41:12.725Z,12.80
2023-01-11T12:43:58.332Z,12.70
2023-01-11T12:46:58.317Z,12.70
2023-01-11T12:49:50.078Z,12.70
2023-01-11T12:52:36.004Z,12.70
2023-01-11T12:55:29.078Z,12.70
2023-01-11T12:58:08.879Z,12.60
2023-01-11T13:01:08.877Z,12.60
2023-01-11T13:04:17.409Z,12.60
2023-01-11T13:06:59.434Z,12.60
2023-01-11T13:09:59.080Z,12.70
2023-01-11T13:13:03.031Z,12.70
2023-01-11T13:15:41.964Z,12.60
2023-01-11T13:18:20.362Z,12.70
2023-01-11T13:21:02.485Z,12.70
2023-01-11T13:23:39.637Z,12.70
2023-01-11T13:26:29.100Z,12.80
2023-01-11T13:29:17.180Z,12.80
2023-01-11T13:31:49.120Z,12.80
2023-01-11T13:34:56.003Z,12.80
2023-01-11T13:37:47.511Z,12.80
2023-01-11T13:40:48.436Z,12.80
2023-01-11T13:43:41.587Z,12.80
2023-01-11T13:46:29.570Z,12.90
2023-01-11T13:49:08.316Z,12.90
2023-01-11T13:51:47.869Z,12.90
2023-01-11T13:54:39.480Z,13.00
2023-01-11T13:57:15.507Z,13.00
2023-01-11T13:59:50.490Z,13.00
2023-01-11T14:02:31.099Z,13.00
2023-01-11T14:05:14.435Z,13.00
2023-01-11T14:08:02.365Z,13.00
2023-01-11T14:11:35.129Z,13.00
2023-01-11T14:14:13.884Z,13.00
2023-01-11T14:17:39.029Z,13.00
2023-01-11T14:20:28.766Z,13.00
2023-01-11T14:23:13.786Z,13.00
2023-01-11T14:26:04.054Z,13.00
2023-01-11T14:28:39.619Z,13.00
2023-01-11T14:31:33.665Z,13.00
2023-01-11T14:34:32.614Z,13.00
2023-01-11T14:37:23.541Z,13.10
2023-01-11T14:40:07.792Z,13.10
2023-01-11T14:42:37.675Z,13.10
2023-01-11T14:45:44.500Z,13.10
2023-01-11T14:48:22.831Z,13.10
2023-01-11T14:51:04.444Z,13.10
2023-01-11T14:53:39.792Z,13.00
2023-01-11T14:56:53.988Z,13.10
2023-01-11T14:59:27.946Z,13.00
2023-01-11T15:02:07.322Z,13.10
2023-01-11T15:04:38.574Z,13.00
2023-01-11T15:07:30.456Z,13.00
2023-01-11T15:10:32.839Z,13.00
2023-01-11T15:13:06.921Z,13.00
2023-01-11T15:15:52.646Z,13.00
2023-01-11T15:18:23.985Z,13.00
2023-01-11T15:21:06.680Z,13.00
2023-01-11T15:23:55.750Z,13.10
2023-01-11T15:26:25.911Z,13.00
2023-01-11T15:28:56.293Z,13.00
2023-01-11T15:31:53.754Z,13.00
2023-01-11T15:34:23.840Z,13.00
2023-01-11T15:37:18.140Z,13.00
2023-01-11T15:39:59.014Z,13.00
2023-01-11T15:43:21.902Z,13.10
2023-01-11T15:46:41.171Z,13.00
2023-01-11T15:49:31.319Z,13.00
2023-01-11T15:52:37.513Z,13.00
2023-01-11T15:55:25.978Z,13.00
2023-01-11T15:58:37.139Z,13.00
2023-01-11T16:01:28.783Z,13.00
2023-01-11T16:04:05.681Z,13.00
2023-01-11T16:06:35.618Z,13.00
2023-01-11T16:09:40.976Z,13.00
2023-01-11T16:12:44.662Z,13.00
2023-01-11T16:15:55.755Z,13.00
2023-01-11T16:18:35.166Z,13.00
2023-01-11T16:21:35.143Z,13.00
2023-01-11T16:24:07.433Z,12.90
2023-01-11T16:26:39.757Z,13.00
2023-01-11T16:29:26.982Z,13.00
2023-01-11T16:32:07.247Z,13.00
2023-01-11T16:34:44.822Z,13.00
2023-01-11T16:37:45.683Z,13.00
2023-01-11T16:40:21.656Z,13.00
2023-01-11T16:43:16.991Z,12.90
2023-01-11T16:45:50.139Z,12.90
2023-01-11T16:48:28.108Z,12.90
2023-01-11T16:51:11.423Z,12.90
2023-01-11T16:53:42.083Z,12.90
2023-01-11T16:56:20.494Z,12.90
2023-01-11T16:59:30.621Z,12.90
2023-01-11T17:02:03.358Z,12.90
2023-01-11T17:04:51.119Z,12.90
2023-01-11T17:07:22.257Z,12.90
2023-01-11T17:09:54.041Z,12.90
2023-01-11T17:12:26.393Z,12.90
2023-01-11T17:15:18.167Z,12.90
2023-01-11T17:17:47.594Z,12.90
2023-01-11T17:20:25.194Z,12.90
2023-01-11T17:22:54.690Z,12.90
2023-01-11T17:25:31.645Z,12.90
2023-01-11T17:28:08.179Z,12.90
2023-01-11T17:30:39.206Z,12.90
2023-01-11T17:33:06.148Z,12.80
2023-01-11T17:35:41.293Z,12.80
2023-01-11T17:38:19.340Z,12.80
2023-01-11T17:40:52.535Z,12.80
2023-01-11T17:43:42.466Z,12.80
2023-01-11T17:46:21.793Z,12.80
2023-01-11T17:49:00.111Z,12.80
2023-01-11T17:51:33.967Z,12.80
2023-01-11T17:54:03.890Z,12.80
2023-01-11T17:56:39.178Z,12.80
2023-01-11T17:59:24.089Z,12.70
2023-01-11T18:02:02.845Z,12.70
2023-01-11T18:04:32.508Z,12.70
2023-01-11T18:07:18.708Z,12.70
2023-01-11T18:09:51.668Z,12.60
2023-01-11T18:12:22.776Z,12.60
2023-01-11T18:15:05.271Z,12.60
2023-01-11T18:17:46.618Z,12.60
2023-01-11T18:20:25.310Z,12.60
2023-01-11T18:23:20.553Z,12.50
2023-01-11T18:25:47.698Z,12.50
2023-01-11T18:28:30.438Z,12.50
2023-01-11T18:31:02.042Z,12.50
2023-01-11T18:33:33.493Z,12.50
2023-01-11T18:36:04.721Z,12.50
2023-01-11T18:38:38.335Z,12.40
2023-01-11T18:41:28.209Z,12.40
2023-01-11T18:43:55.816Z,12.40
2023-01-11T18:46:25.248Z,12.30
2023-01-11T18:48:52.505Z,12.30
2023-01-11T18:51:41.763Z,12.30
2023-01-11T18:54:18.692Z,12.30
2023-01-11T18:56:45.785Z,12.30
2023-01-11T18:59:12.791Z,12.30
2023-01-11T19:01:54.460Z,12.20
2023-01-11T19:04:26.880Z,12.30
2023-01-11T19:06:53.943Z,12.20
2023-01-11T19:09:23.029Z,12.20
2023-01-11T19:11:55.560Z,12.20
2023-01-11T19:14:24.844Z,12.10
2023-01-11T19:16:51.888Z,12.10
2023-01-11T19:19:20.983Z,12.10
2023-01-11T19:21:50.515Z,12.10
2023-01-11T19:24:19.956Z,12.00
2023-01-11T19:26:49.982Z,12.00
2023-01-11T19:29:18.918Z,12.00
2023-01-11T19:31:52.240Z,12.00
2023-01-11T19:34:24.980Z,12.00
2023-01-11T19:36:52.736Z,11.90
2023-01-11T19:39:20.061Z,11.90
2023-01-11T19:41:55.200Z,11.90
2023-01-11T19:44:26.817Z,11.90
2023-01-11T19:47:09.728Z,11.90
2023-01-11T19:49:40.246Z,11.90
2023-01-11T19:52:12.505Z,11.90
2023-01-11T19:54:42.567Z,11.90
2023-01-11T19:57:18.023Z,11.90
2023-01-11T19:59:45.359Z,11.90
2023-01-11T20:02:20.191Z,11.90
2023-01-11T20:04:47.758Z,11.90
2023-01-11T20:07:20.443Z,11.90
2023-01-11T20:09:49.787Z,11.90
2023-01-11T20:12:16.839Z,11.90
2023-01-11T20:14:46.433Z,12.00
2023-01-11T20:17:15.893Z,12.00
2023-01-11T20:19:43.362Z,12.00
2023-01-11T20:22:15.284Z,12.00
2023-01-11T20:24:47.540Z,12.00
2023-01-11T20:27:14.604Z,12.00
2023-01-11T20:29:43.793Z,12.00
2023-01-11T20:32:31.533Z,12.00
2023-01-11T20:34:57.978Z,11.90
2023-01-11T20:37:24.868Z,11.90
2023-01-11T20:39:51.706Z,11.90
2023-01-11T20:42:20.933Z,11.90
2023-01-11T20:44:50.379Z,11.80
2023-01-11T20:47:17.260Z,11.80
2023-01-11T20:49:46.590Z,11.70
2023-01-11T20:52:16.057Z,11.70
2023-01-11T20:54:42.930Z,11.60
2023-01-11T20:57:12.342Z,11.60
2023-01-11T20:59:41.605Z,11.60
2023-01-11T21:02:13.633Z,11.60
2023-01-11T21:04:40.685Z,11.50
2023-01-11T21:07:10.714Z,11.50
2023-01-11T21:09:42.219Z,11.40
2023-01-11T21:12:11.628Z,11.40
2023-01-11T21:14:38.878Z,11.40
2023-01-11T21:17:11.313Z,11.40
2023-01-11T21:19:38.211Z,11.30
2023-01-11T21:22:05.327Z,11.30
2023-01-11T21:24:32.240Z,11.30
2023-01-11T21:27:09.792Z,11.30
2023-01-11T21:29:36.751Z,11.30
2023-01-11T21:32:04.366Z,11.20
2023-01-11T21:34:31.310Z,11.20
2023-01-11T21:36:58.244Z,11.20
2023-01-11T21:39:27.648Z,11.20
2023-01-11T21:42:03.429Z,11.20
2023-01-11T21:44:33.428Z,11.20
2023-01-11T21:47:08.588Z,11.20
2023-01-11T21:49:37.968Z,11.20
2023-01-11T21:52:04.976Z,11.10
2023-01-11T21:54:32.135Z,11.10
2023-01-11T21:56:59.090Z,11.10
2023-01-11T21:59:30.078Z,11.10
2023-01-11T22:01:59.564Z,11.10
2023-01-11T22:04:26.467Z,11.00
2023-01-11T22:06:59.970Z,11.00
2023-01-11T22:09:29.177Z,11.00
2023-01-11T22:11:58.482Z,11.00
2023-01-11T22:14:25.500Z,10.90
2023-01-11T22:16:53.547Z,10.90
2023-01-11T22:19:20.814Z,10.90
2023-01-11T22:21:47.792Z,10.90
2023-01-11T22:24:17.935Z,10.80
2023-01-11T22:26:44.949Z,10.80
2023-01-11T22:29:17.067Z,10.70
2023-01-11T22:31:54.753Z,10.70
2023-01-11T22:34:23.262Z,10.60
2023-01-11T22:36:50.211Z,10.50
2023-01-11T22:39:20.392Z,10.50
2023-01-11T22:41:48.931Z,10.40
2023-01-11T22:44:16.751Z,10.40
2023-01-11T22:46:48.940Z,10.20
2023-01-11T22:49:17.436Z,10.20
2023-01-11T22:51:47.736Z,10.10
2023-01-11T22:54:17.367Z,10.10
2023-01-11T22:56:47.652Z,10.10
2023-01-11T22:59:14.637Z,10.00
2023-01-11T23:01:42.281Z,10.00
2023-01-11T23:04:13.240Z,9.90
2023-01-11T23:06:43.404Z,10.00
2023-01-11T23:09:17.329Z,9.90
2023-01-11T23:12:06.144Z,9.90
2023-01-11T23:14:35.628Z,9.90
2023-01-11T23:17:10.522Z,9.90
2023-01-11T23:19:43.714Z,9.90
2023-01-11T23:22:10.644Z,9.90
2023-01-11T23:24:41.129Z,9.90
2023-01-11T23:27:10.663Z,9.90
2023-01-11T23:29:40.016Z,9.90
2023-01-11T23:32:11.607Z,9.90
2023-01-11T23:34:38.427Z,9.90
2023-01-11T23:37:05.333Z,9.90
2023-01-11T23:39:32.839Z,9.90
2023-01-11T23:42:18.226Z,9.90
2023-01-11T23:44:49.535Z,9.80
2023-01-11T23:47:22.334Z,9.80
2023-01-11T23:49:57.511Z,9.80
2023-01-11T23:52:28.122Z,9.70
2023-01-11T23:54:55.391Z,9.70
2023-01-11T23:57:26.662Z,9.60
2023-01-11T23:59:55.699Z,9.60
